createdAt,value
2023-03-04T00:06:15.029Z,17.174
2023-03-04T00:21:17.046Z,17.387
2023-03-04T00:36:18.943Z,17.235
2023-03-04T00:51:20.899Z,17.2
2023-03-04T01:06:22.832Z,17.537
2023-03-04T01:21:24.985Z,17.68
2023-03-04T01:36:26.908Z,17.834
2023-03-04T01:51:28.821Z,17.901
2023-03-04T02:06:30.811Z,17.623
2023-03-04T02:21:32.764Z,18.185
2023-03-04T02:36:34.696Z,18.573
2023-03-04T02:51:36.617Z,18.2
2023-03-04T03:06:38.568Z,18.525
2023-03-04T03:21:40.543Z,17.942
2023-03-04T03:36:42.553Z,18.237
2023-03-04T03:51:44.517Z,18.243
2023-03-04T04:06:46.524Z,17.818
2023-03-04T04:21:48.401Z,17.999
2023-03-04T04:36:50.323Z,18.189
2023-03-04T04:51:52.252Z,17.698
2023-03-04T05:06:54.159Z,18.004
2023-03-04T05:21:56.107Z,17.583
2023-03-04T05:36:58.002Z,17.716
2023-03-04T05:52:00.030Z,17.768
2023-03-04T06:07:01.947Z,17.35
2023-03-04T06:22:03.866Z,17.58
2023-03-04T06:37:05.912Z,17.851
2023-03-04T06:52:07.792Z,17.616
2023-03-04T07:07:09.763Z,17.654
2023-03-04T07:22:11.731Z,17.518
2023-03-04T07:37:13.725Z,17.671
2023-03-04T07:52:15.649Z,17.679
2023-03-04T08:07:17.753Z,17.668
2023-03-04T08:22:19.664Z,17.473
2023-03-04T08:37:21.652Z,17.79
2023-03-04T08:52:23.547Z,17.037
2023-03-04T09:07:25.588Z,17.657
2023-03-04T09:22:27.541Z,18.407
2023-03-04T09:37:29.666Z,18.138
2023-03-04T09:52:31.612Z,17.968
2023-03-04T10:07:33.518Z,18.29
2023-03-04T10:22:35.459Z,17.573
2023-03-04T10:37:37.341Z,17.204
2023-03-04T10:52:39.374Z,17.643
2023-03-04T11:07:54.519Z,17.314
2023-03-04T11:22:56.795Z,17.647
2023-03-04T11:37:58.794Z,17.477
2023-03-04T11:53:00.765Z,17.246
2023-03-04T12:08:02.656Z,17.038
2023-03-04T12:23:04.480Z,17.965
2023-03-04T12:38:06.365Z,17.188
2023-03-04T12:53:08.287Z,17.662
2023-03-04T13:08:10.200Z,17.305
2023-03-04T13:23:12.099Z,17.118
2023-03-04T13:38:14.053Z,16.946
2023-03-04T13:53:16.031Z,17.575
2023-03-04T14:08:17.977Z,17.062
2023-03-04T14:23:19.900Z,18.169
2023-03-04T14:38:21.834Z,17.614
2023-03-04T14:53:23.753Z,17.042
2023-03-04T15:08:25.714Z,17.458
2023-03-04T15:23:27.596Z,17.087
2023-03-04T15:38:29.558Z,17.544
2023-03-04T15:53:31.796Z,17.104
2023-03-04T16:08:33.826Z,17.493
2023-03-04T16:23:35.734Z,17.052
2023-03-04T16:38:37.700Z,17.551
2023-03-04T16:53:39.565Z,16.994
2023-03-04T17:08:41.493Z,17.146
2023-03-04T17:23:43.436Z,17.159
2023-03-04T17:38:45.439Z,16.961
2023-03-04T17:53:47.351Z,17.265
2023-03-04T18:08:49.250Z,16.996
2023-03-04T18:23:51.178Z,17.569
2023-03-04T18:38:53.085Z,17.28
2023-03-04T18:53:55.000Z,17.526
2023-03-04T19:08:56.979Z,18.077
2023-03-04T19:23:58.914Z,17.736
2023-03-04T19:39:00.880Z,17.22
2023-03-04T19:54:02.811Z,17.544
2023-03-04T20:09:04.710Z,18.292
2023-03-04T20:24:06.643Z,17.483
2023-03-04T20:39:21.792Z,17.482
2023-03-04T20:54:29.788Z,17.845
2023-03-04T21:09:31.709Z,18.557
2023-03-04T21:24:33.712Z,18.419
2023-03-04T21:39:35.640Z,18.993
2023-03-04T21:54:37.555Z,18.829
2023-03-04T22:09:39.478Z,19.418
2023-03-04T22:24:41.454Z,18.67
2023-03-04T22:39:43.429Z,18.435
2023-03-04T22:54:45.319Z,20.355
2023-03-04T23:09:47.229Z,19.004
2023-03-04T23:24:49.168Z,18.687
2023-03-04T23:39:51.181Z,19.715
2023-03-04T23:54:53.105Z,18.76
